Hostile Method-08 — HM-08 — position and weather

sailwx.info

Track history (hours):
 
Tides and Currents Weather Stations Pressure Air Temp Water Temp Dewpoint Dewpoint Depression Visibility Wind Speed Wind Dir Waves Ship Positions

Hostile Method-08

Last reported at 2018-Jun-12 22:38 UTC. Time now 2018-Jun-24 18:54 UTC.
Position N 34°09' W 119°13'.
Warning: this ship's position is 11 days out of date.

Length 26 m; draft 1.6 m.

Type: Military. MMSI: 369970279.

Date/timePositionNaut miles runAvg speedWind from/ knotsBaromVisibWave heightAir tempDewpointWater temp
2018-Jun-12 22:38N 34°09' W 119°13'0 0.0
2018-Jun-12 22:29N 34°09' W 119°13'510.6
2018-Jun-12 21:59N 34°05' W 119°17'613.7
2018-Jun-12 21:31N 34°00' W 119°22'1 1.6
2018-Jun-12 21:01N 34°00' W 119°23'815.0
2018-Jun-12 20:29N 33°56' W 119°31'3 5.5
2018-Jun-12 20:00N 33°54' W 119°34'0 0.8
2018-Jun-12 19:29N 33°54' W 119°33'1 1.0
2018-Jun-12 18:57N 33°54' W 119°33'4 7.7
2018-Jun-12 18:28N 33°57' W 119°33'3 5.7
2018-Jun-12 18:00N 33°60' W 119°32'0 0.3
2018-Jun-12 17:29N 33°60' W 119°32'4 8.6
2018-Jun-12 17:00N 34°02' W 119°28'714.6
2018-Jun-12 16:30N 34°06' W 119°20'713.5
2018-Jun-12 16:00N 34°09' W 119°13'  
2018-Jun-09 19:29N 34°09' W 119°13'4 8.2
2018-Jun-09 19:00N 34°06' W 119°15'611.9
2018-Jun-09 18:31N 34°01' W 119°20'612.0
2018-Jun-09 17:59N 33°59' W 119°27'4 8.8
2018-Jun-09 17:30N 33°57' W 119°31'1 1.1
2018-Jun-09 17:00N 33°57' W 119°32'1 2.8
2018-Jun-09 16:30N 33°58' W 119°31'1 1.3
2018-Jun-09 15:58N 33°58' W 119°31'2 5.2
2018-Jun-09 15:29N 33°57' W 119°34'3 3.2
2018-Jun-09 14:30N 33°54' W 119°36'3 5.1
2018-Jun-09 14:00N 33°52' W 119°38'2 4.7
2018-Jun-09 13:30N 33°52' W 119°41'4 8.1
2018-Jun-09 13:00N 33°55' W 119°36'710.3
2018-Jun-09 12:19N 33°59' W 119°30'3 9.4
2018-Jun-09 11:59N 34°01' W 119°27'5 9.5
2018-Jun-09 11:27N 34°04' W 119°22'5 9.5
2018-Jun-09 10:58N 34°06' W 119°17'4 9.3
2018-Jun-09 10:30N 34°09' W 119°13'1 0.1
2018-Jun-09 00:49N 34°09' W 119°13'0 0.6
2018-Jun-09 00:29N 34°09' W 119°13'4 8.3
2018-Jun-08 23:57N 34°06' W 119°17'511.6
2018-Jun-08 23:29N 34°04' W 119°22'611.9
2018-Jun-08 23:00N 34°01' W 119°28'612.0
2018-Jun-08 22:30N 33°57' W 119°34'3 5.1
2018-Jun-08 22:00N 33°56' W 119°37'4 8.3
2018-Jun-08 21:30N 33°52' W 119°38'0 0.3
2018-Jun-08 21:00N 33°52' W 119°38'1 1.9
2018-Jun-08 20:30N 33°52' W 119°40'0 0.6
2018-Jun-08 19:59N 33°53' W 119°40'0 1.0
2018-Jun-08 19:30N 33°52' W 119°39'1 1.2
2018-Jun-08 18:59N 33°52' W 119°40'2 3.3
2018-Jun-08 18:30N 33°52' W 119°42'2 4.7
2018-Jun-08 18:00N 33°52' W 119°39'2 3.6
2018-Jun-08 17:30N 33°52' W 119°37'2 4.6
2018-Jun-08 17:00N 33°52' W 119°40'1 1.7
2018-Jun-08 16:30N 33°53' W 119°41'3 5.0
2018-Jun-08 16:00N 33°53' W 119°38'2 3.1
2018-Jun-08 15:30N 33°52' W 119°39'2 3.7
2018-Jun-08 15:00N 33°53' W 119°37'2 4.3
2018-Jun-08 14:30N 33°52' W 119°39'0 0.6
2018-Jun-08 14:00N 33°52' W 119°40'3 5.3
2018-Jun-08 13:30N 33°54' W 119°38'611.4
2018-Jun-08 13:00N 33°58' W 119°33'5 9.8
2018-Jun-08 12:30N 34°01' W 119°28'5 9.2
2018-Jun-08 11:59N 34°03' W 119°23'4 8.8
2018-Jun-08 11:30N 34°05' W 119°19'4 8.6
2018-Jun-08 11:00N 34°08' W 119°15'2 4.1
2018-Jun-08 10:28N 34°09' W 119°13'  
Track history (hours):
 
Tides and Currents Weather Stations Pressure Air Temp Water Temp Dewpoint Dewpoint Depression Visibility Wind Speed Wind Dir Waves Ship Positions

Hostile Method-08

Last reported at 2018-Jun-12 22:38 UTC. Time now 2018-Jun-24 18:54 UTC.
Position N 34°09' W 119°13'.
Warning: this ship's position is 11 days out of date.

Length 26 m; draft 1.6 m.

Type: Military. MMSI: 369970279.

Date/timePositionNaut miles runAvg speedWind from/ knotsBaromVisibWave heightAir tempDewpointWater temp
2018-Jun-12 22:38N 34°09' W 119°13'0 0.0
2018-Jun-12 22:29N 34°09' W 119°13'510.6
2018-Jun-12 21:59N 34°05' W 119°17'613.7
2018-Jun-12 21:31N 34°00' W 119°22'1 1.6
2018-Jun-12 21:01N 34°00' W 119°23'815.0
2018-Jun-12 20:29N 33°56' W 119°31'3 5.5
2018-Jun-12 20:00N 33°54' W 119°34'0 0.8
2018-Jun-12 19:29N 33°54' W 119°33'1 1.0
2018-Jun-12 18:57N 33°54' W 119°33'4 7.7
2018-Jun-12 18:28N 33°57' W 119°33'3 5.7
2018-Jun-12 18:00N 33°60' W 119°32'0 0.3
2018-Jun-12 17:29N 33°60' W 119°32'4 8.6
2018-Jun-12 17:00N 34°02' W 119°28'714.6
2018-Jun-12 16:30N 34°06' W 119°20'713.5
2018-Jun-12 16:00N 34°09' W 119°13'  
2018-Jun-09 19:29N 34°09' W 119°13'4 8.2
2018-Jun-09 19:00N 34°06' W 119°15'611.9
2018-Jun-09 18:31N 34°01' W 119°20'612.0
2018-Jun-09 17:59N 33°59' W 119°27'4 8.8
2018-Jun-09 17:30N 33°57' W 119°31'1 1.1
2018-Jun-09 17:00N 33°57' W 119°32'1 2.8
2018-Jun-09 16:30N 33°58' W 119°31'1 1.3
2018-Jun-09 15:58N 33°58' W 119°31'2 5.2
2018-Jun-09 15:29N 33°57' W 119°34'3 3.2
2018-Jun-09 14:30N 33°54' W 119°36'3 5.1
2018-Jun-09 14:00N 33°52' W 119°38'2 4.7
2018-Jun-09 13:30N 33°52' W 119°41'4 8.1
2018-Jun-09 13:00N 33°55' W 119°36'710.3
2018-Jun-09 12:19N 33°59' W 119°30'3 9.4
2018-Jun-09 11:59N 34°01' W 119°27'5 9.5
2018-Jun-09 11:27N 34°04' W 119°22'5 9.5
2018-Jun-09 10:58N 34°06' W 119°17'4 9.3
2018-Jun-09 10:30N 34°09' W 119°13'1 0.1
2018-Jun-09 00:49N 34°09' W 119°13'0 0.6
2018-Jun-09 00:29N 34°09' W 119°13'4 8.3
2018-Jun-08 23:57N 34°06' W 119°17'511.6
2018-Jun-08 23:29N 34°04' W 119°22'611.9
2018-Jun-08 23:00N 34°01' W 119°28'612.0
2018-Jun-08 22:30N 33°57' W 119°34'3 5.1
2018-Jun-08 22:00N 33°56' W 119°37'4 8.3
2018-Jun-08 21:30N 33°52' W 119°38'0 0.3
2018-Jun-08 21:00N 33°52' W 119°38'1 1.9
2018-Jun-08 20:30N 33°52' W 119°40'0 0.6
2018-Jun-08 19:59N 33°53' W 119°40'0 1.0
2018-Jun-08 19:30N 33°52' W 119°39'1 1.2
2018-Jun-08 18:59N 33°52' W 119°40'2 3.3
2018-Jun-08 18:30N 33°52' W 119°42'2 4.7
2018-Jun-08 18:00N 33°52' W 119°39'2 3.6
2018-Jun-08 17:30N 33°52' W 119°37'2 4.6
2018-Jun-08 17:00N 33°52' W 119°40'1 1.7
2018-Jun-08 16:30N 33°53' W 119°41'3 5.0
2018-Jun-08 16:00N 33°53' W 119°38'2 3.1
2018-Jun-08 15:30N 33°52' W 119°39'2 3.7
2018-Jun-08 15:00N 33°53' W 119°37'2 4.3
2018-Jun-08 14:30N 33°52' W 119°39'0 0.6
2018-Jun-08 14:00N 33°52' W 119°40'3 5.3
2018-Jun-08 13:30N 33°54' W 119°38'611.4
2018-Jun-08 13:00N 33°58' W 119°33'5 9.8
2018-Jun-08 12:30N 34°01' W 119°28'5 9.2
2018-Jun-08 11:59N 34°03' W 119°23'4 8.8
2018-Jun-08 11:30N 34°05' W 119°19'4 8.6
2018-Jun-08 11:00N 34°08' W 119°15'2 4.1
2018-Jun-08 10:28N 34°09' W 119°13'  

Dump ship's entire track history